Airfield :
LOGIN :

Register | Disclaimer

   EN    FR    IT 

 










Legend :    VFR   Marginal VFR   IFR   Intensive IFR   Very Intensive IFR
Visi :
Ceiling :
>= 8 km
>= 3000ft
5 to 8 km
1000 to 3000 ft
1500m to 5 km
500 to 1000 ft
800 to 1500m
200 to 500 ft
< 800m
< 200 ft
Symbols :   Thunderstorms  Fog  Heavy snow  Heavy precipitations  Wind > 20 kt
SIGMETs :     Misc.  Thunderstorms  Icing  Turbulence  Mountain Waves  Volcanic Ashes






- Airport Elevation : 228 ft
- IATA code : OPO


LPPR - Porto Fr. Sa Carneiro

CURRENT METAR :
  • 080330Z 32012G24KT 290V350 9999 -SHRA FEW020 BKN035 10/07 Q1018

EXPIRED METARs :
  • 080300Z 31010KT 9999 FEW024 BKN040 11/08 Q1017
  • 080230Z 31007KT 9999 FEW020 BKN040 10/08 Q1017
  • 080200Z 33013KT 9999 -SHRA FEW020 FEW024TCU BKN040 10/08 Q1017
  • 080130Z 30005KT 9999 VCSH FEW020 FEW024TCU BKN040 10/08 Q1017 RESHRA
  • 080100Z 32014KT 7000 SHRA FEW018 FEW020TCU BKN040 09/08 Q1017

TAF TAF LPPR
Valid from the 08 at 00:00 until the 09 at 00:00 UTC


072300Z 0800/0824 30010KT 9999 FEW020 SCT040
TEMPO 0800/0824 8000 SHRAGS SCT012 FEW025TCU BKN030
BECMG 0807/0809 31015KT
PROB30
TEMPO 0809/0818 33015G25KT
BECMG 0818/0820 33008KT



MET'MAP, your aeronautical weather chart ! - Copyright ORBIFLY December 2007 - Disclaimer

ORBIFLY MET'MAP TEAM :

Programming & Development : Alexandra Zaïnal
Concept & original design : Baudouin d'Aumeries
Assistance for programming : Marc-Olivier Méhu
Technical & hardware support : Manuel Goepfert

Contact : metmap@orbifly.com




SOURCES & CREDITS :

   NOAA